sensor_id;sensor_type;location;lat;lon;timestamp;P1;durP1;ratioP1;P2;durP2;ratioP2
79790;SDS011;69278;52.220;5.172;2023-06-22T00:01:18;6.78;;;4.72;;
79790;SDS011;69278;52.220;5.172;2023-06-22T00:03:45;6.53;;;4.80;;
79790;SDS011;69278;52.220;5.172;2023-06-22T00:06:12;8.18;;;4.90;;
79790;SDS011;69278;52.220;5.172;2023-06-22T00:08:39;8.30;;;5.80;;
79790;SDS011;69278;52.220;5.172;2023-06-22T00:11:05;10.27;;;6.80;;
79790;SDS011;69278;52.220;5.172;2023-06-22T00:13:32;10.57;;;6.57;;
79790;SDS011;69278;52.220;5.172;2023-06-22T00:15:58;11.33;;;6.70;;
79790;SDS011;69278;52.220;5.172;2023-06-22T00:18:25;10.55;;;6.93;;
79790;SDS011;69278;52.220;5.172;2023-06-22T00:20:57;9.00;;;6.32;;
79790;SDS011;69278;52.220;5.172;2023-06-22T00:23:25;10.50;;;7.15;;
79790;SDS011;69278;52.220;5.172;2023-06-22T00:25:52;8.30;;;5.47;;
79790;SDS011;69278;52.220;5.172;2023-06-22T00:28:18;9.50;;;6.13;;
79790;SDS011;69278;52.220;5.172;2023-06-22T00:30:45;10.65;;;7.13;;
79790;SDS011;69278;52.220;5.172;2023-06-22T00:33:12;10.60;;;6.90;;
79790;SDS011;69278;52.220;5.172;2023-06-22T00:35:38;11.02;;;6.80;;
79790;SDS011;69278;52.220;5.172;2023-06-22T00:38:07;10.55;;;7.35;;
79790;SDS011;69278;52.220;5.172;2023-06-22T00:40:34;10.10;;;7.10;;
79790;SDS011;69278;52.220;5.172;2023-06-22T00:43:01;11.63;;;7.25;;
79790;SDS011;69278;52.220;5.172;2023-06-22T00:45:28;10.43;;;7.30;;
79790;SDS011;69278;52.220;5.172;2023-06-22T00:47:56;10.95;;;7.70;;
79790;SDS011;69278;52.220;5.172;2023-06-22T00:50:27;11.43;;;8.18;;
79790;SDS011;69278;52.220;5.172;2023-06-22T00:53:04;13.07;;;8.40;;
79790;SDS011;69278;52.220;5.172;2023-06-22T00:55:36;12.50;;;8.52;;
79790;SDS011;69278;52.220;5.172;2023-06-22T00:58:08;13.98;;;8.57;;
79790;SDS011;69278;52.220;5.172;2023-06-22T01:00:37;13.15;;;7.50;;
79790;SDS011;69278;52.220;5.172;2023-06-22T01:03:04;13.07;;;9.18;;
79790;SDS011;69278;52.220;5.172;2023-06-22T01:05:35;14.30;;;9.23;;
79790;SDS011;69278;52.220;5.172;2023-06-22T01:11:05;10.40;;;7.05;;
79790;SDS011;69278;52.220;5.172;2023-06-22T01:16:10;13.35;;;7.25;;
79790;SDS011;69278;52.220;5.172;2023-06-22T01:18:44;13.27;;;9.43;;
79790;SDS011;69278;52.220;5.172;2023-06-22T01:21:14;12.95;;;8.82;;
79790;SDS011;69278;52.220;5.172;2023-06-22T01:26:37;13.65;;;9.05;;
79790;SDS011;69278;52.220;5.172;2023-06-22T01:29:08;15.88;;;9.90;;
79790;SDS011;69278;52.220;5.172;2023-06-22T01:31:38;14.43;;;9.73;;
79790;SDS011;69278;52.220;5.172;2023-06-22T01:34:07;13.77;;;9.10;;
79790;SDS011;69278;52.220;5.172;2023-06-22T01:36:35;13.77;;;8.90;;
79790;SDS011;69278;52.220;5.172;2023-06-22T01:39:02;14.65;;;9.15;;
79790;SDS011;69278;52.220;5.172;2023-06-22T01:41:35;12.63;;;8.82;;
79790;SDS011;69278;52.220;5.172;2023-06-22T01:44:06;15.10;;;9.10;;
79790;SDS011;69278;52.220;5.172;2023-06-22T01:46:34;13.93;;;8.32;;
79790;SDS011;69278;52.220;5.172;2023-06-22T01:49:02;13.52;;;9.88;;
79790;SDS011;69278;52.220;5.172;2023-06-22T01:51:30;15.32;;;9.35;;
79790;SDS011;69278;52.220;5.172;2023-06-22T01:53:57;16.48;;;10.25;;
79790;SDS011;69278;52.220;5.172;2023-06-22T01:56:23;15.47;;;10.50;;
79790;SDS011;69278;52.220;5.172;2023-06-22T01:59:05;16.58;;;10.18;;
79790;SDS011;69278;52.220;5.172;2023-06-22T02:01:44;15.27;;;9.75;;
79790;SDS011;69278;52.220;5.172;2023-06-22T02:04:21;16.00;;;10.57;;
79790;SDS011;69278;52.220;5.172;2023-06-22T02:06:55;15.38;;;9.98;;
79790;SDS011;69278;52.220;5.172;2023-06-22T02:09:24;14.83;;;9.80;;
79790;SDS011;69278;52.220;5.172;2023-06-22T02:11:55;14.70;;;9.82;;
79790;SDS011;69278;52.220;5.172;2023-06-22T02:14:23;14.02;;;10.05;;
79790;SDS011;69278;52.220;5.172;2023-06-22T02:16:51;14.48;;;9.75;;
79790;SDS011;69278;52.220;5.172;2023-06-22T02:19:22;17.58;;;10.88;;
79790;SDS011;69278;52.220;5.172;2023-06-22T02:21:49;14.77;;;10.27;;
79790;SDS011;69278;52.220;5.172;2023-06-22T02:24:16;16.52;;;11.20;;
79790;SDS011;69278;52.220;5.172;2023-06-22T02:26:43;16.33;;;10.88;;
79790;SDS011;69278;52.220;5.172;2023-06-22T02:29:11;14.82;;;10.80;;
79790;SDS011;69278;52.220;5.172;2023-06-22T02:31:38;18.33;;;11.70;;
79790;SDS011;69278;52.220;5.172;2023-06-22T02:34:04;17.70;;;10.80;;
79790;SDS011;69278;52.220;5.172;2023-06-22T02:36:31;13.85;;;8.10;;
79790;SDS011;69278;52.220;5.172;2023-06-22T02:38:59;14.15;;;9.68;;
79790;SDS011;69278;52.220;5.172;2023-06-22T02:41:28;15.23;;;10.30;;
79790;SDS011;69278;52.220;5.172;2023-06-22T02:43:54;14.07;;;10.13;;
79790;SDS011;69278;52.220;5.172;2023-06-22T02:46:21;15.57;;;9.73;;
79790;SDS011;69278;52.220;5.172;2023-06-22T02:48:47;15.90;;;10.07;;
79790;SDS011;69278;52.220;5.172;2023-06-22T02:51:14;17.92;;;11.05;;
79790;SDS011;69278;52.220;5.172;2023-06-22T02:53:41;15.57;;;10.60;;
79790;SDS011;69278;52.220;5.172;2023-06-22T02:56:10;16.27;;;10.38;;
79790;SDS011;69278;52.220;5.172;2023-06-22T02:58:38;19.20;;;11.07;;
79790;SDS011;69278;52.220;5.172;2023-06-22T03:01:05;16.35;;;10.70;;
79790;SDS011;69278;52.220;5.172;2023-06-22T03:03:32;16.10;;;10.70;;
79790;SDS011;69278;52.220;5.172;2023-06-22T03:05:59;15.50;;;10.45;;
79790;SDS011;69278;52.220;5.172;2023-06-22T03:08:27;17.85;;;11.02;;
79790;SDS011;69278;52.220;5.172;2023-06-22T03:10:54;14.57;;;10.17;;
79790;SDS011;69278;52.220;5.172;2023-06-22T03:13:21;16.75;;;10.77;;
79790;SDS011;69278;52.220;5.172;2023-06-22T03:15:48;16.55;;;10.43;;
79790;SDS011;69278;52.220;5.172;2023-06-22T03:18:14;17.70;;;11.00;;
79790;SDS011;69278;52.220;5.172;2023-06-22T03:20:41;16.17;;;11.05;;
79790;SDS011;69278;52.220;5.172;2023-06-22T03:23:08;14.50;;;9.47;;
79790;SDS011;69278;52.220;5.172;2023-06-22T03:25:35;14.77;;;9.10;;
79790;SDS011;69278;52.220;5.172;2023-06-22T03:28:01;11.85;;;8.43;;
79790;SDS011;69278;52.220;5.172;2023-06-22T03:30:28;10.38;;;7.13;;
79790;SDS011;69278;52.220;5.172;2023-06-22T03:32:55;14.15;;;9.30;;
79790;SDS011;69278;52.220;5.172;2023-06-22T03:35:22;17.60;;;10.00;;
79790;SDS011;69278;52.220;5.172;2023-06-22T03:37:49;14.95;;;10.07;;
79790;SDS011;69278;52.220;5.172;2023-06-22T03:40:15;18.13;;;11.43;;
79790;SDS011;69278;52.220;5.172;2023-06-22T03:42:42;18.15;;;11.43;;
79790;SDS011;69278;52.220;5.172;2023-06-22T03:45:08;17.00;;;11.43;;
79790;SDS011;69278;52.220;5.172;2023-06-22T03:47:35;19.67;;;12.10;;
79790;SDS011;69278;52.220;5.172;2023-06-22T03:50:02;19.40;;;11.70;;
79790;SDS011;69278;52.220;5.172;2023-06-22T03:52:30;17.05;;;11.23;;
79790;SDS011;69278;52.220;5.172;2023-06-22T03:54:56;18.05;;;11.40;;
79790;SDS011;69278;52.220;5.172;2023-06-22T03:57:23;18.30;;;11.63;;
79790;SDS011;69278;52.220;5.172;2023-06-22T03:59:50;11.93;;;8.47;;
79790;SDS011;69278;52.220;5.172;2023-06-22T04:02:16;16.52;;;11.15;;
79790;SDS011;69278;52.220;5.172;2023-06-22T04:04:43;19.35;;;12.70;;
79790;SDS011;69278;52.220;5.172;2023-06-22T04:07:09;22.98;;;13.15;;
79790;SDS011;69278;52.220;5.172;2023-06-22T04:09:36;19.00;;;12.20;;
79790;SDS011;69278;52.220;5.172;2023-06-22T04:12:02;20.03;;;12.50;;
79790;SDS011;69278;52.220;5.172;2023-06-22T04:14:29;20.35;;;12.70;;
79790;SDS011;69278;52.220;5.172;2023-06-22T04:16:57;17.98;;;12.63;;
79790;SDS011;69278;52.220;5.172;2023-06-22T04:19:24;20.85;;;13.60;;
79790;SDS011;69278;52.220;5.172;2023-06-22T04:21:50;19.88;;;11.07;;
79790;SDS011;69278;52.220;5.172;2023-06-22T04:24:17;21.17;;;13.13;;
79790;SDS011;69278;52.220;5.172;2023-06-22T04:26:43;18.83;;;11.75;;
79790;SDS011;69278;52.220;5.172;2023-06-22T04:29:11;21.35;;;12.73;;
79790;SDS011;69278;52.220;5.172;2023-06-22T04:31:38;20.25;;;12.93;;
79790;SDS011;69278;52.220;5.172;2023-06-22T04:34:05;20.85;;;12.57;;
79790;SDS011;69278;52.220;5.172;2023-06-22T04:36:34;20.13;;;12.03;;
79790;SDS011;69278;52.220;5.172;2023-06-22T04:39:07;20.95;;;13.40;;
79790;SDS011;69278;52.220;5.172;2023-06-22T04:41:36;20.90;;;13.45;;
79790;SDS011;69278;52.220;5.172;2023-06-22T04:44:16;17.92;;;11.52;;
79790;SDS011;69278;52.220;5.172;2023-06-22T04:46:50;20.17;;;12.82;;
79790;SDS011;69278;52.220;5.172;2023-06-22T04:49:20;18.80;;;11.40;;
79790;SDS011;69278;52.220;5.172;2023-06-22T04:51:48;19.13;;;12.57;;
79790;SDS011;69278;52.220;5.172;2023-06-22T04:54:17;19.83;;;12.50;;
79790;SDS011;69278;52.220;5.172;2023-06-22T04:56:44;18.88;;;11.30;;
79790;SDS011;69278;52.220;5.172;2023-06-22T04:59:12;21.58;;;12.68;;
79790;SDS011;69278;52.220;5.172;2023-06-22T05:01:39;18.13;;;10.00;;
79790;SDS011;69278;52.220;5.172;2023-06-22T05:04:05;19.17;;;9.98;;
79790;SDS011;69278;52.220;5.172;2023-06-22T05:06:33;15.75;;;9.50;;
79790;SDS011;69278;52.220;5.172;2023-06-22T05:08:59;21.05;;;13.05;;
79790;SDS011;69278;52.220;5.172;2023-06-22T05:11:26;19.10;;;11.55;;
79790;SDS011;69278;52.220;5.172;2023-06-22T05:13:53;18.97;;;10.83;;
79790;SDS011;69278;52.220;5.172;2023-06-22T05:16:21;18.83;;;11.35;;
79790;SDS011;69278;52.220;5.172;2023-06-22T05:18:51;27.58;;;17.27;;
79790;SDS011;69278;52.220;5.172;2023-06-22T05:21:21;22.23;;;14.15;;
79790;SDS011;69278;52.220;5.172;2023-06-22T05:23:49;28.67;;;16.77;;
79790;SDS011;69278;52.220;5.172;2023-06-22T05:26:17;24.57;;;15.17;;
79790;SDS011;69278;52.220;5.172;2023-06-22T05:28:45;20.30;;;12.48;;
79790;SDS011;69278;52.220;5.172;2023-06-22T05:31:13;26.02;;;14.98;;
79790;SDS011;69278;52.220;5.172;2023-06-22T05:33:43;29.25;;;17.25;;
79790;SDS011;69278;52.220;5.172;2023-06-22T05:36:10;19.52;;;13.90;;
79790;SDS011;69278;52.220;5.172;2023-06-22T05:38:37;26.90;;;17.03;;
79790;SDS011;69278;52.220;5.172;2023-06-22T05:41:03;24.70;;;15.38;;
79790;SDS011;69278;52.220;5.172;2023-06-22T05:43:30;26.25;;;16.88;;
79790;SDS011;69278;52.220;5.172;2023-06-22T05:45:57;24.13;;;15.45;;
79790;SDS011;69278;52.220;5.172;2023-06-22T05:48:24;24.45;;;14.48;;
79790;SDS011;69278;52.220;5.172;2023-06-22T05:50:50;24.80;;;15.97;;
79790;SDS011;69278;52.220;5.172;2023-06-22T05:53:17;26.08;;;15.45;;
79790;SDS011;69278;52.220;5.172;2023-06-22T05:55:43;21.08;;;12.75;;
79790;SDS011;69278;52.220;5.172;2023-06-22T05:58:10;19.88;;;13.38;;
79790;SDS011;69278;52.220;5.172;2023-06-22T06:00:36;28.15;;;18.27;;
79790;SDS011;69278;52.220;5.172;2023-06-22T06:03:03;28.27;;;18.50;;
79790;SDS011;69278;52.220;5.172;2023-06-22T06:05:33;28.58;;;18.48;;
79790;SDS011;69278;52.220;5.172;2023-06-22T06:08:01;27.13;;;17.55;;
79790;SDS011;69278;52.220;5.172;2023-06-22T06:10:29;24.98;;;17.02;;
79790;SDS011;69278;52.220;5.172;2023-06-22T06:12:56;25.35;;;14.93;;
79790;SDS011;69278;52.220;5.172;2023-06-22T06:15:23;27.90;;;18.90;;
79790;SDS011;69278;52.220;5.172;2023-06-22T06:17:50;27.73;;;18.50;;
79790;SDS011;69278;52.220;5.172;2023-06-22T06:20:18;29.52;;;19.08;;
79790;SDS011;69278;52.220;5.172;2023-06-22T06:22:46;24.30;;;16.48;;
79790;SDS011;69278;52.220;5.172;2023-06-22T06:25:13;24.92;;;15.63;;
79790;SDS011;69278;52.220;5.172;2023-06-22T06:27:43;26.23;;;16.60;;
79790;SDS011;69278;52.220;5.172;2023-06-22T06:30:10;22.92;;;14.20;;
79790;SDS011;69278;52.220;5.172;2023-06-22T06:32:38;23.30;;;15.13;;
79790;SDS011;69278;52.220;5.172;2023-06-22T06:35:06;26.17;;;17.02;;
79790;SDS011;69278;52.220;5.172;2023-06-22T06:37:36;32.58;;;20.85;;
79790;SDS011;69278;52.220;5.172;2023-06-22T06:40:07;24.13;;;16.23;;
79790;SDS011;69278;52.220;5.172;2023-06-22T06:42:40;20.67;;;13.57;;
79790;SDS011;69278;52.220;5.172;2023-06-22T06:45:08;30.92;;;19.58;;
79790;SDS011;69278;52.220;5.172;2023-06-22T06:47:35;17.85;;;11.68;;
79790;SDS011;69278;52.220;5.172;2023-06-22T06:50:02;25.27;;;17.05;;
79790;SDS011;69278;52.220;5.172;2023-06-22T06:52:30;28.43;;;17.67;;
79790;SDS011;69278;52.220;5.172;2023-06-22T06:54:56;28.58;;;18.92;;
79790;SDS011;69278;52.220;5.172;2023-06-22T06:57:23;27.30;;;17.77;;
79790;SDS011;69278;52.220;5.172;2023-06-22T06:59:49;33.10;;;18.92;;
79790;SDS011;69278;52.220;5.172;2023-06-22T07:02:16;26.50;;;16.95;;
79790;SDS011;69278;52.220;5.172;2023-06-22T07:04:42;27.87;;;18.07;;
79790;SDS011;69278;52.220;5.172;2023-06-22T07:07:09;32.58;;;19.02;;
79790;SDS011;69278;52.220;5.172;2023-06-22T07:09:35;29.17;;;17.88;;
79790;SDS011;69278;52.220;5.172;2023-06-22T07:12:02;20.63;;;14.40;;
79790;SDS011;69278;52.220;5.172;2023-06-22T07:14:28;18.33;;;11.75;;
79790;SDS011;69278;52.220;5.172;2023-06-22T07:16:55;26.37;;;16.83;;
79790;SDS011;69278;52.220;5.172;2023-06-22T07:19:27;28.73;;;18.92;;
79790;SDS011;69278;52.220;5.172;2023-06-22T07:21:54;23.70;;;15.13;;
79790;SDS011;69278;52.220;5.172;2023-06-22T07:24:21;20.98;;;14.52;;
79790;SDS011;69278;52.220;5.172;2023-06-22T07:26:48;20.08;;;12.35;;
79790;SDS011;69278;52.220;5.172;2023-06-22T07:29:19;24.20;;;16.67;;
79790;SDS011;69278;52.220;5.172;2023-06-22T07:31:47;25.55;;;16.00;;
79790;SDS011;69278;52.220;5.172;2023-06-22T07:34:16;18.42;;;12.98;;
79790;SDS011;69278;52.220;5.172;2023-06-22T07:36:43;26.45;;;17.67;;
79790;SDS011;69278;52.220;5.172;2023-06-22T07:39:10;27.83;;;17.98;;
79790;SDS011;69278;52.220;5.172;2023-06-22T07:41:38;27.37;;;18.13;;
79790;SDS011;69278;52.220;5.172;2023-06-22T07:44:05;24.00;;;15.45;;
79790;SDS011;69278;52.220;5.172;2023-06-22T07:46:32;26.73;;;17.67;;
79790;SDS011;69278;52.220;5.172;2023-06-22T07:48:59;28.83;;;19.08;;
79790;SDS011;69278;52.220;5.172;2023-06-22T07:51:27;29.13;;;17.90;;
79790;SDS011;69278;52.220;5.172;2023-06-22T07:53:53;23.73;;;16.73;;
79790;SDS011;69278;52.220;5.172;2023-06-22T07:56:20;28.15;;;18.58;;
79790;SDS011;69278;52.220;5.172;2023-06-22T07:58:47;25.42;;;18.80;;
79790;SDS011;69278;52.220;5.172;2023-06-22T08:01:14;28.33;;;18.25;;
79790;SDS011;69278;52.220;5.172;2023-06-22T08:03:41;21.75;;;15.07;;
79790;SDS011;69278;52.220;5.172;2023-06-22T08:06:07;25.47;;;17.27;;
79790;SDS011;69278;52.220;5.172;2023-06-22T08:08:36;25.55;;;18.42;;
79790;SDS011;69278;52.220;5.172;2023-06-22T08:11:02;25.17;;;18.00;;
79790;SDS011;69278;52.220;5.172;2023-06-22T08:13:29;23.98;;;16.45;;
79790;SDS011;69278;52.220;5.172;2023-06-22T08:15:56;25.27;;;16.75;;
79790;SDS011;69278;52.220;5.172;2023-06-22T08:18:22;27.30;;;17.07;;
79790;SDS011;69278;52.220;5.172;2023-06-22T08:20:49;25.45;;;18.05;;
79790;SDS011;69278;52.220;5.172;2023-06-22T08:23:16;23.70;;;15.82;;
79790;SDS011;69278;52.220;5.172;2023-06-22T08:25:43;24.27;;;16.50;;
79790;SDS011;69278;52.220;5.172;2023-06-22T08:28:09;23.17;;;15.50;;
79790;SDS011;69278;52.220;5.172;2023-06-22T08:30:36;26.80;;;15.70;;
79790;SDS011;69278;52.220;5.172;2023-06-22T08:33:02;22.38;;;15.52;;
79790;SDS011;69278;52.220;5.172;2023-06-22T08:35:29;24.77;;;16.02;;
79790;SDS011;69278;52.220;5.172;2023-06-22T08:37:56;22.88;;;15.30;;
79790;SDS011;69278;52.220;5.172;2023-06-22T08:40:24;22.27;;;17.15;;
79790;SDS011;69278;52.220;5.172;2023-06-22T08:42:50;18.70;;;13.60;;
79790;SDS011;69278;52.220;5.172;2023-06-22T08:45:17;18.27;;;13.48;;
79790;SDS011;69278;52.220;5.172;2023-06-22T08:47:43;21.48;;;15.82;;
79790;SDS011;69278;52.220;5.172;2023-06-22T08:50:11;22.73;;;16.10;;
79790;SDS011;69278;52.220;5.172;2023-06-22T08:52:38;22.02;;;15.25;;
79790;SDS011;69278;52.220;5.172;2023-06-22T08:55:07;19.53;;;13.77;;
79790;SDS011;69278;52.220;5.172;2023-06-22T08:57:35;22.10;;;15.27;;
79790;SDS011;69278;52.220;5.172;2023-06-22T09:00:08;21.42;;;15.52;;
79790;SDS011;69278;52.220;5.172;2023-06-22T09:02:42;19.50;;;13.57;;
79790;SDS011;69278;52.220;5.172;2023-06-22T09:05:09;18.20;;;14.02;;
79790;SDS011;69278;52.220;5.172;2023-06-22T09:07:36;17.93;;;13.27;;
79790;SDS011;69278;52.220;5.172;2023-06-22T09:10:03;21.08;;;14.00;;
79790;SDS011;69278;52.220;5.172;2023-06-22T09:12:31;19.05;;;14.50;;
79790;SDS011;69278;52.220;5.172;2023-06-22T09:14:59;18.90;;;13.90;;
79790;SDS011;69278;52.220;5.172;2023-06-22T09:17:26;16.52;;;11.52;;
79790;SDS011;69278;52.220;5.172;2023-06-22T09:19:53;18.27;;;10.63;;
79790;SDS011;69278;52.220;5.172;2023-06-22T09:22:20;14.80;;;9.90;;
79790;SDS011;69278;52.220;5.172;2023-06-22T09:24:47;14.98;;;10.32;;
79790;SDS011;69278;52.220;5.172;2023-06-22T09:27:13;17.60;;;10.80;;
79790;SDS011;69278;52.220;5.172;2023-06-22T09:29:39;11.85;;;7.97;;
79790;SDS011;69278;52.220;5.172;2023-06-22T09:32:06;10.43;;;7.13;;
79790;SDS011;69278;52.220;5.172;2023-06-22T09:34:33;11.63;;;7.43;;
79790;SDS011;69278;52.220;5.172;2023-06-22T09:36:59;13.05;;;9.10;;
79790;SDS011;69278;52.220;5.172;2023-06-22T09:39:27;12.35;;;7.95;;
79790;SDS011;69278;52.220;5.172;2023-06-22T09:41:53;11.98;;;7.80;;
79790;SDS011;69278;52.220;5.172;2023-06-22T09:44:20;12.30;;;8.90;;
79790;SDS011;69278;52.220;5.172;2023-06-22T09:46:46;10.52;;;7.85;;
79790;SDS011;69278;52.220;5.172;2023-06-22T09:49:13;12.95;;;8.02;;
79790;SDS011;69278;52.220;5.172;2023-06-22T09:51:39;11.77;;;7.43;;
79790;SDS011;69278;52.220;5.172;2023-06-22T09:54:06;13.15;;;7.20;;
79790;SDS011;69278;52.220;5.172;2023-06-22T09:56:32;12.17;;;7.17;;
79790;SDS011;69278;52.220;5.172;2023-06-22T09:58:59;11.00;;;6.82;;
79790;SDS011;69278;52.220;5.172;2023-06-22T10:01:43;10.02;;;7.57;;
79790;SDS011;69278;52.220;5.172;2023-06-22T10:04:09;12.43;;;7.63;;
79790;SDS011;69278;52.220;5.172;2023-06-22T10:06:36;11.23;;;7.05;;
79790;SDS011;69278;52.220;5.172;2023-06-22T10:09:07;13.60;;;7.40;;
79790;SDS011;69278;52.220;5.172;2023-06-22T10:11:34;11.52;;;6.80;;
79790;SDS011;69278;52.220;5.172;2023-06-22T10:14:01;9.95;;;6.30;;
79790;SDS011;69278;52.220;5.172;2023-06-22T10:16:31;24.45;;;7.00;;
79790;SDS011;69278;52.220;5.172;2023-06-22T10:18:58;13.80;;;8.65;;
79790;SDS011;69278;52.220;5.172;2023-06-22T10:21:25;13.90;;;7.90;;
79790;SDS011;69278;52.220;5.172;2023-06-22T10:23:53;13.98;;;9.00;;
79790;SDS011;69278;52.220;5.172;2023-06-22T10:26:19;13.07;;;9.90;;
79790;SDS011;69278;52.220;5.172;2023-06-22T10:28:46;13.00;;;8.02;;
79790;SDS011;69278;52.220;5.172;2023-06-22T10:31:12;10.25;;;7.65;;
79790;SDS011;69278;52.220;5.172;2023-06-22T10:33:39;14.83;;;7.40;;
79790;SDS011;69278;52.220;5.172;2023-06-22T10:36:07;10.85;;;7.07;;
79790;SDS011;69278;52.220;5.172;2023-06-22T10:38:34;12.00;;;7.90;;
79790;SDS011;69278;52.220;5.172;2023-06-22T10:41:00;10.45;;;7.18;;
79790;SDS011;69278;52.220;5.172;2023-06-22T10:43:27;13.27;;;6.32;;
79790;SDS011;69278;52.220;5.172;2023-06-22T10:45:53;10.10;;;6.20;;
79790;SDS011;69278;52.220;5.172;2023-06-22T10:48:19;10.13;;;7.05;;
79790;SDS011;69278;52.220;5.172;2023-06-22T10:50:46;12.05;;;6.70;;
79790;SDS011;69278;52.220;5.172;2023-06-22T10:53:13;11.38;;;7.85;;
79790;SDS011;69278;52.220;5.172;2023-06-22T10:55:39;10.85;;;7.43;;
79790;SDS011;69278;52.220;5.172;2023-06-22T10:58:12;11.53;;;7.50;;
79790;SDS011;69278;52.220;5.172;2023-06-22T11:00:38;10.27;;;6.63;;
79790;SDS011;69278;52.220;5.172;2023-06-22T11:03:05;9.52;;;6.70;;
79790;SDS011;69278;52.220;5.172;2023-06-22T11:05:32;10.05;;;7.35;;
79790;SDS011;69278;52.220;5.172;2023-06-22T11:07:58;10.50;;;7.45;;
79790;SDS011;69278;52.220;5.172;2023-06-22T11:10:25;10.30;;;6.93;;
79790;SDS011;69278;52.220;5.172;2023-06-22T11:12:54;11.43;;;7.25;;
79790;SDS011;69278;52.220;5.172;2023-06-22T11:15:22;10.40;;;6.68;;
79790;SDS011;69278;52.220;5.172;2023-06-22T11:17:49;11.02;;;7.07;;
79790;SDS011;69278;52.220;5.172;2023-06-22T11:20:15;11.48;;;7.15;;
79790;SDS011;69278;52.220;5.172;2023-06-22T11:22:42;10.83;;;6.90;;
79790;SDS011;69278;52.220;5.172;2023-06-22T11:25:09;11.70;;;7.05;;
79790;SDS011;69278;52.220;5.172;2023-06-22T11:27:37;12.18;;;7.00;;
79790;SDS011;69278;52.220;5.172;2023-06-22T11:30:03;9.93;;;6.60;;
79790;SDS011;69278;52.220;5.172;2023-06-22T11:32:30;12.57;;;7.10;;
79790;SDS011;69278;52.220;5.172;2023-06-22T11:34:57;10.40;;;7.10;;
79790;SDS011;69278;52.220;5.172;2023-06-22T11:37:23;10.07;;;7.00;;
79790;SDS011;69278;52.220;5.172;2023-06-22T11:39:50;9.77;;;6.72;;
79790;SDS011;69278;52.220;5.172;2023-06-22T11:42:25;9.55;;;6.65;;
79790;SDS011;69278;52.220;5.172;2023-06-22T11:44:51;10.02;;;6.60;;
79790;SDS011;69278;52.220;5.172;2023-06-22T11:47:18;12.60;;;7.40;;
79790;SDS011;69278;52.220;5.172;2023-06-22T11:49:44;10.43;;;7.10;;
79790;SDS011;69278;52.220;5.172;2023-06-22T11:52:11;11.60;;;7.30;;
79790;SDS011;69278;52.220;5.172;2023-06-22T11:54:38;10.70;;;8.00;;
79790;SDS011;69278;52.220;5.172;2023-06-22T11:57:05;10.95;;;7.60;;
79790;SDS011;69278;52.220;5.172;2023-06-22T11:59:31;13.03;;;8.27;;
79790;SDS011;69278;52.220;5.172;2023-06-22T12:01:58;12.75;;;8.18;;
79790;SDS011;69278;52.220;5.172;2023-06-22T12:04:24;13.98;;;8.93;;
79790;SDS011;69278;52.220;5.172;2023-06-22T12:06:51;14.40;;;9.20;;
79790;SDS011;69278;52.220;5.172;2023-06-22T12:09:17;13.35;;;9.57;;
79790;SDS011;69278;52.220;5.172;2023-06-22T12:11:44;11.80;;;8.40;;
79790;SDS011;69278;52.220;5.172;2023-06-22T12:14:10;14.43;;;10.38;;
79790;SDS011;69278;52.220;5.172;2023-06-22T12:16:37;15.50;;;10.65;;
79790;SDS011;69278;52.220;5.172;2023-06-22T12:19:04;17.52;;;10.80;;
79790;SDS011;69278;52.220;5.172;2023-06-22T12:21:30;15.50;;;10.63;;
79790;SDS011;69278;52.220;5.172;2023-06-22T12:23:56;17.83;;;11.90;;
79790;SDS011;69278;52.220;5.172;2023-06-22T12:26:23;16.63;;;12.05;;
79790;SDS011;69278;52.220;5.172;2023-06-22T12:28:49;41.67;;;13.35;;
79790;SDS011;69278;52.220;5.172;2023-06-22T12:31:16;29.55;;;14.02;;
79790;SDS011;69278;52.220;5.172;2023-06-22T12:33:43;25.13;;;13.02;;
79790;SDS011;69278;52.220;5.172;2023-06-22T12:36:10;29.00;;;12.47;;
79790;SDS011;69278;52.220;5.172;2023-06-22T12:38:36;23.10;;;12.55;;
79790;SDS011;69278;52.220;5.172;2023-06-22T12:41:03;17.50;;;11.80;;
79790;SDS011;69278;52.220;5.172;2023-06-22T12:43:29;20.15;;;11.77;;
79790;SDS011;69278;52.220;5.172;2023-06-22T12:45:56;17.70;;;11.95;;
79790;SDS011;69278;52.220;5.172;2023-06-22T12:48:24;16.97;;;12.30;;
79790;SDS011;69278;52.220;5.172;2023-06-22T12:50:52;16.70;;;12.07;;
79790;SDS011;69278;52.220;5.172;2023-06-22T12:53:20;17.30;;;11.30;;
79790;SDS011;69278;52.220;5.172;2023-06-22T12:55:48;22.83;;;11.77;;
79790;SDS011;69278;52.220;5.172;2023-06-22T12:58:15;35.13;;;11.48;;
79790;SDS011;69278;52.220;5.172;2023-06-22T13:00:42;24.20;;;10.23;;
79790;SDS011;69278;52.220;5.172;2023-06-22T13:03:09;20.58;;;9.85;;
79790;SDS011;69278;52.220;5.172;2023-06-22T13:05:36;15.80;;;9.25;;
79790;SDS011;69278;52.220;5.172;2023-06-22T13:08:02;11.65;;;7.90;;
79790;SDS011;69278;52.220;5.172;2023-06-22T13:10:29;12.70;;;7.32;;
79790;SDS011;69278;52.220;5.172;2023-06-22T13:12:56;11.33;;;7.27;;
79790;SDS011;69278;52.220;5.172;2023-06-22T13:15:27;11.82;;;7.85;;
79790;SDS011;69278;52.220;5.172;2023-06-22T13:17:55;14.23;;;8.40;;
79790;SDS011;69278;52.220;5.172;2023-06-22T13:20:22;13.65;;;8.70;;
79790;SDS011;69278;52.220;5.172;2023-06-22T13:22:48;13.48;;;8.93;;
79790;SDS011;69278;52.220;5.172;2023-06-22T13:25:15;12.50;;;8.90;;
79790;SDS011;69278;52.220;5.172;2023-06-22T13:27:45;12.05;;;8.82;;
79790;SDS011;69278;52.220;5.172;2023-06-22T13:30:12;13.20;;;9.18;;
79790;SDS011;69278;52.220;5.172;2023-06-22T13:32:40;15.23;;;9.10;;
79790;SDS011;69278;52.220;5.172;2023-06-22T13:35:10;16.00;;;9.55;;
79790;SDS011;69278;52.220;5.172;2023-06-22T13:37:37;12.23;;;9.13;;
79790;SDS011;69278;52.220;5.172;2023-06-22T13:40:07;13.90;;;9.25;;
79790;SDS011;69278;52.220;5.172;2023-06-22T13:42:34;14.18;;;9.10;;
79790;SDS011;69278;52.220;5.172;2023-06-22T13:45:01;12.82;;;9.55;;
79790;SDS011;69278;52.220;5.172;2023-06-22T13:47:28;11.98;;;8.38;;
79790;SDS011;69278;52.220;5.172;2023-06-22T13:49:57;13.63;;;9.43;;
79790;SDS011;69278;52.220;5.172;2023-06-22T13:52:24;15.82;;;9.82;;
79790;SDS011;69278;52.220;5.172;2023-06-22T13:54:51;12.02;;;8.57;;
79790;SDS011;69278;52.220;5.172;2023-06-22T13:57:17;13.00;;;8.73;;
79790;SDS011;69278;52.220;5.172;2023-06-22T13:59:44;14.23;;;9.15;;
79790;SDS011;69278;52.220;5.172;2023-06-22T14:02:11;11.60;;;9.13;;
79790;SDS011;69278;52.220;5.172;2023-06-22T14:04:37;12.50;;;9.50;;
79790;SDS011;69278;52.220;5.172;2023-06-22T14:07:04;13.23;;;9.63;;
79790;SDS011;69278;52.220;5.172;2023-06-22T14:09:31;16.17;;;9.10;;
79790;SDS011;69278;52.220;5.172;2023-06-22T14:11:58;15.45;;;9.45;;
79790;SDS011;69278;52.220;5.172;2023-06-22T14:14:28;15.07;;;9.17;;
79790;SDS011;69278;52.220;5.172;2023-06-22T14:16:55;12.93;;;9.05;;
79790;SDS011;69278;52.220;5.172;2023-06-22T14:19:21;19.33;;;10.07;;
79790;SDS011;69278;52.220;5.172;2023-06-22T14:21:48;17.27;;;10.63;;
79790;SDS011;69278;52.220;5.172;2023-06-22T14:24:14;18.85;;;11.02;;
79790;SDS011;69278;52.220;5.172;2023-06-22T14:26:40;19.60;;;10.60;;
79790;SDS011;69278;52.220;5.172;2023-06-22T14:29:07;15.68;;;9.48;;
79790;SDS011;69278;52.220;5.172;2023-06-22T14:31:33;14.68;;;10.02;;
79790;SDS011;69278;52.220;5.172;2023-06-22T14:34:00;14.15;;;9.05;;
79790;SDS011;69278;52.220;5.172;2023-06-22T14:36:28;12.10;;;8.90;;
79790;SDS011;69278;52.220;5.172;2023-06-22T14:38:55;14.50;;;9.80;;